Huvudsida
METAR-TAF:

METAR-TAF

Flygplatser :

Tabarka, Tunisien

latitud: 36-57N, longitud: 008-45E, höjd: 20 m

Aktuellt väderrapport

Denna rapport gjordes för 37 minuter sedan, klockan 22:00 UTC
Stilla vind
Temperatur 13°C
Fuktighet 100%
Tryck 1009 hPa
Sikt 10 km eller mer
Spridda moln på en höjd av 2000 ft
Spridda moln på en höjd av 3000 ft

METAR: DTKA 152200Z 00000KT 9999 SCT020 SCT030 13/13 Q1009 NOSIG

Tid: 23:37 (22:37 UTC)

Väderprognos

Denna rapport gjordes för 1 timme och 37 minuter sedan, klockan 21:00 UTC
Prognos gäller från 15 kl. 22 UTC till 16 kl. 07 UTC
Vind 3 kt varierande vindriktning
Sikt 10 km eller mer
Spridda moln på en höjd av 2000 ft
Spridda moln på en höjd av 3000 ft
Sannolikhet 30% :
Temporärt
från 16 kl. 02 UTC till 16 kl. 07 UTC
Brutna moln på en höjd av 2000 ft
Få moln på en höjd av 2300 ft, Cumulonimbus.
regn

TAF: DTKA 152100Z 1522/1607 VRB03KT 9999 SCT020 SCT030 PROB30 TEMPO 1602/1607 RA BKN020 FEW023CB

Aktuella väderrapporter och prognoser från 4000 flygplatser (METAR- och TAF-rapporter).

De tillgängliga stationerna syns som gula och röda prickar på kartan.

För musen över prickarna för att se namnen på stationerna.

Klicka sedan för att få väderrapporter och prognoser.

För att ändra kartan: Klicka på de gröna knapparna med ett svart kors på för att zooma in; den gröna knappen med ett streck på för att zooma ut; eller på de gröna pilarna för angränsande kartor.


METAR-TAF: